Time;durP1;ratioP1;P1;durP2;ratioP2;P2;SDS_P1;SDS_P2;PMS_P1;PMS_P2;Temp;Humidity;BMP_temperature;BMP_pressure;BME280_temperature;BME280_humidity;BME280_pressure;Samples;Min_cycle;Max_cycle;Signal;HPM_P1;HPM_P2
2024/01/25 00:00:58;;;;;;;;;3.33;2.00;;;;;;;;5088434;28;9390;-79
2024/01/25 00:03:26;;;;;;;;;7.00;4.00;;;;;;;;5087817;28;9356;-79
2024/01/25 00:05:53;;;;;;;;;4.33;4.33;;;;;;;;5090056;28;9314;-79
2024/01/25 00:08:20;;;;;;;;;2.00;2.00;;;;;;;;5088626;28;9333;-79
2024/01/25 00:10:48;;;;;;;;;4.67;2.00;;;;;;;;5089188;28;9258;-78
2024/01/25 00:13:16;;;;;;;;;2.67;2.00;;;;;;;;5090251;28;9165;-78
2024/01/25 00:15:43;;;;;;;;;5.00;3.00;;;;;;;;5090289;28;9304;-80
2024/01/25 00:18:11;;;;;;;;;5.00;2.33;;;;;;;;5089617;28;9358;-79
2024/01/25 00:20:38;;;;;;;;;4.67;3.00;;;;;;;;5088832;28;9318;-79
2024/01/25 00:23:05;;;;;;;;;5.00;3.00;;;;;;;;5092626;28;9252;-79
2024/01/25 00:25:33;;;;;;;;;2.00;2.00;;;;;;;;5094850;28;9238;-79
2024/01/25 00:28:00;;;;;;;;;5.00;2.00;;;;;;;;5094504;28;9345;-79
2024/01/25 00:30:29;;;;;;;;;8.67;2.00;;;;;;;;5094332;28;9304;-79
2024/01/25 00:32:56;;;;;;;;;4.67;2.00;;;;;;;;5094334;28;10172;-79
2024/01/25 00:35:24;;;;;;;;;3.00;3.00;;;;;;;;5094250;28;9183;-79
2024/01/25 00:37:52;;;;;;;;;2.67;1.00;;;;;;;;5090894;28;9171;-79
2024/01/25 00:40:20;;;;;;;;;2.33;2.33;;;;;;;;5090209;28;9014;-79
2024/01/25 00:42:52;;;;;;;;;2.00;2.00;;;;;;;;5091607;28;9198;-78
2024/01/25 00:45:20;;;;;;;;;2.67;2.67;;;;;;;;5093734;28;9094;-79
2024/01/25 00:47:49;;;;;;;;;2.33;2.00;;;;;;;;5092160;28;9096;-78
2024/01/25 00:50:20;;;;;;;;;3.67;2.00;;;;;;;;5088994;28;9191;-79
2024/01/25 00:52:48;;;;;;;;;3.67;2.00;;;;;;;;5089178;28;9279;-78
2024/01/25 00:55:17;;;;;;;;;2.33;2.00;;;;;;;;5086953;28;9079;-78
2024/01/25 00:57:44;;;;;;;;;2.33;2.00;;;;;;;;5088241;28;9179;-78
2024/01/25 01:00:13;;;;;;;;;2.67;2.33;;;;;;;;5085877;28;9258;-78
2024/01/25 01:02:43;;;;;;;;;1.00;1.00;;;;;;;;5088360;28;9363;-79
2024/01/25 01:05:13;;;;;;;;;3.33;1.00;;;;;;;;5085453;28;9093;-78
2024/01/25 01:07:41;;;;;;;;;3.00;1.00;;;;;;;;5088482;28;9240;-79
2024/01/25 01:10:09;;;;;;;;;4.33;1.00;;;;;;;;5088335;28;9076;-78
2024/01/25 01:12:37;;;;;;;;;2.33;2.33;;;;;;;;5088045;28;9084;-78
2024/01/25 01:15:05;;;;;;;;;4.00;2.00;;;;;;;;5088198;28;9384;-78
2024/01/25 01:17:33;;;;;;;;;1.33;1.33;;;;;;;;5087372;28;9021;-79
2024/01/25 01:20:00;;;;;;;;;6.00;3.00;;;;;;;;5088152;28;9206;-79
2024/01/25 01:22:29;;;;;;;;;1.00;1.00;;;;;;;;5087866;28;10055;-79
2024/01/25 01:24:56;;;;;;;;;2.00;2.00;;;;;;;;5087600;28;9926;-79
2024/01/25 01:27:23;;;;;;;;;0.00;0.00;;;;;;;;5086487;28;9274;-79
2024/01/25 01:29:51;;;;;;;;;4.00;4.00;;;;;;;;5088444;28;9023;-78
2024/01/25 01:32:18;;;;;;;;;4.67;2.00;;;;;;;;5075554;28;9304;-79
2024/01/25 01:34:46;;;;;;;;;0.67;0.33;;;;;;;;5088997;28;9071;-78
2024/01/25 01:37:13;;;;;;;;;3.00;1.67;;;;;;;;5088802;28;9290;-78
2024/01/25 01:39:42;;;;;;;;;5.00;3.00;;;;;;;;5088457;28;9023;-78
2024/01/25 01:42:09;;;;;;;;;1.00;1.00;;;;;;;;5086093;28;9186;-79
2024/01/25 01:44:36;;;;;;;;;2.00;2.00;;;;;;;;5088461;28;9078;-78
2024/01/25 01:47:04;;;;;;;;;4.00;1.00;;;;;;;;5086503;28;9019;-79
2024/01/25 01:49:31;;;;;;;;;2.67;2.33;;;;;;;;5088276;28;9080;-79
2024/01/25 01:51:59;;;;;;;;;4.00;2.67;;;;;;;;5086240;28;9057;-79
2024/01/25 01:54:26;;;;;;;;;3.67;3.00;;;;;;;;5087191;28;9159;-78
2024/01/25 01:56:56;;;;;;;;;1.67;1.67;;;;;;;;5087084;28;9124;-79
2024/01/25 01:59:25;;;;;;;;;5.33;2.67;;;;;;;;5087404;28;9033;-80
2024/01/25 02:01:52;;;;;;;;;2.00;2.00;;;;;;;;5087445;28;9036;-79
2024/01/25 02:04:20;;;;;;;;;3.50;1.50;;;;;;;;5089575;28;8925;-79
2024/01/25 02:06:47;;;;;;;;;7.00;2.75;;;;;;;;5088137;28;8864;-79
2024/01/25 02:09:14;;;;;;;;;4.33;3.00;;;;;;;;5091491;28;8976;-80
2024/01/25 02:11:41;;;;;;;;;1.67;1.00;;;;;;;;5092558;28;8959;-79
2024/01/25 02:14:11;;;;;;;;;4.75;2.75;;;;;;;;5094904;28;9854;-79
2024/01/25 02:16:39;;;;;;;;;1.50;1.00;;;;;;;;5093802;28;9653;-78
2024/01/25 02:19:06;;;;;;;;;2.33;1.33;;;;;;;;5095117;28;8997;-79
2024/01/25 02:21:33;;;;;;;;;4.00;3.00;;;;;;;;5093186;28;9021;-79
2024/01/25 02:24:02;;;;;;;;;3.00;3.00;;;;;;;;5092232;28;9838;-78
2024/01/25 02:26:29;;;;;;;;;2.00;2.00;;;;;;;;5088668;28;9180;-78
2024/01/25 02:28:56;;;;;;;;;3.00;2.33;;;;;;;;5090114;28;9006;-79
2024/01/25 02:31:23;;;;;;;;;4.00;3.00;;;;;;;;5094153;28;9147;-79
2024/01/25 02:33:51;;;;;;;;;4.00;2.00;;;;;;;;5095545;28;9312;-78
2024/01/25 02:36:18;;;;;;;;;5.00;3.00;;;;;;;;5090345;28;9206;-79
2024/01/25 02:38:45;;;;;;;;;6.33;2.00;;;;;;;;5079472;28;9175;-78
2024/01/25 02:41:14;;;;;;;;;5.00;2.33;;;;;;;;5083233;28;9333;-79
2024/01/25 02:43:44;;;;;;;;;4.33;2.00;;;;;;;;5079164;28;9419;-79
2024/01/25 02:46:11;;;;;;;;;5.00;3.25;;;;;;;;5077233;28;9182;-78
2024/01/25 02:48:38;;;;;;;;;5.33;2.00;;;;;;;;5091447;28;9482;-78
2024/01/25 02:51:06;;;;;;;;;4.25;2.00;;;;;;;;5089159;28;9336;-78
2024/01/25 02:53:33;;;;;;;;;5.50;3.00;;;;;;;;5085434;28;9478;-78
2024/01/25 02:56:00;;;;;;;;;7.00;2.00;;;;;;;;5081593;28;9504;-79
2024/01/25 02:58:29;;;;;;;;;2.67;2.67;;;;;;;;5089830;28;9455;-79
2024/01/25 03:00:56;;;;;;;;;4.75;3.00;;;;;;;;5089079;28;9322;-78
2024/01/25 03:03:24;;;;;;;;;2.50;2.25;;;;;;;;5089243;28;9552;-79
2024/01/25 03:05:52;;;;;;;;;3.50;2.00;;;;;;;;5091107;28;9464;-79
2024/01/25 03:08:20;;;;;;;;;5.00;2.00;;;;;;;;5090022;28;9455;-79
2024/01/25 03:10:49;;;;;;;;;4.00;3.00;;;;;;;;5085360;28;9608;-78
2024/01/25 03:13:17;;;;;;;;;2.75;1.50;;;;;;;;5088938;28;9609;-79
2024/01/25 03:15:45;;;;;;;;;7.00;3.25;;;;;;;;5087804;28;9514;-79
2024/01/25 03:18:13;;;;;;;;;5.75;3.00;;;;;;;;5090500;28;9553;-79
2024/01/25 03:20:40;;;;;;;;;4.00;3.00;;;;;;;;5078548;28;9485;-80
2024/01/25 03:23:07;;;;;;;;;5.00;3.00;;;;;;;;5089736;28;9652;-79
2024/01/25 03:25:34;;;;;;;;;4.25;2.25;;;;;;;;5090289;28;9561;-79
2024/01/25 03:28:02;;;;;;;;;6.75;4.50;;;;;;;;5089204;28;9582;-79
2024/01/25 03:30:29;;;;;;;;;5.50;2.00;;;;;;;;5089007;28;10240;-80
2024/01/25 03:32:58;;;;;;;;;4.50;3.25;;;;;;;;5089755;28;9539;-80
2024/01/25 03:35:25;;;;;;;;;2.00;0.00;;;;;;;;5090088;28;9476;-79
2024/01/25 03:37:52;;;;;;;;;5.50;3.00;;;;;;;;5087753;28;9522;-80
2024/01/25 03:40:20;;;;;;;;;2.25;2.25;;;;;;;;5089896;28;9549;-80
2024/01/25 03:42:47;;;;;;;;;8.00;3.00;;;;;;;;5089807;28;9614;-80
2024/01/25 03:45:14;;;;;;;;;2.25;2.25;;;;;;;;5090009;28;9580;-80
2024/01/25 03:47:41;;;;;;;;;3.25;3.00;;;;;;;;5089663;28;9541;-80
2024/01/25 03:50:13;;;;;;;;;3.25;2.75;;;;;;;;5090436;28;9492;-80
2024/01/25 03:52:40;;;;;;;;;2.00;2.00;;;;;;;;5090521;28;9548;-80
2024/01/25 03:55:08;;;;;;;;;3.00;1.00;;;;;;;;5093287;28;9476;-80
2024/01/25 03:57:36;;;;;;;;;4.67;1.33;;;;;;;;5095524;28;9399;-80
2024/01/25 04:00:04;;;;;;;;;3.33;2.00;;;;;;;;5096692;28;9468;-80
2024/01/25 04:02:31;;;;;;;;;4.50;2.00;;;;;;;;5097039;28;9332;-80
2024/01/25 04:04:58;;;;;;;;;2.75;1.50;;;;;;;;5097292;28;9682;-79
2024/01/25 04:07:27;;;;;;;;;8.00;3.25;;;;;;;;5097020;28;9534;-78
2024/01/25 04:09:54;;;;;;;;;5.25;3.25;;;;;;;;5096283;28;9581;-78
2024/01/25 04:12:21;;;;;;;;;2.67;2.67;;;;;;;;5093829;28;9491;-79
2024/01/25 04:14:49;;;;;;;;;1.33;0.33;;;;;;;;5091633;28;9329;-79
2024/01/25 04:17:16;;;;;;;;;4.00;2.00;;;;;;;;5091597;28;9334;-80
2024/01/25 04:19:43;;;;;;;;;7.00;4.00;;;;;;;;5092763;28;10108;-80
2024/01/25 04:22:10;;;;;;;;;3.00;3.00;;;;;;;;5091438;28;9610;-81
2024/01/25 04:24:39;;;;;;;;;7.33;4.67;;;;;;;;5090059;28;9318;-79
2024/01/25 04:27:07;;;;;;;;;6.67;3.67;;;;;;;;5087321;28;9417;-80
2024/01/25 04:29:34;;;;;;;;;6.33;5.00;;;;;;;;5085672;28;9402;-80
2024/01/25 04:32:01;;;;;;;;;3.00;3.00;;;;;;;;5087116;28;9197;-80
2024/01/25 04:34:28;;;;;;;;;6.00;3.00;;;;;;;;5088756;28;9175;-80
2024/01/25 04:36:56;;;;;;;;;2.67;1.00;;;;;;;;5089090;28;9223;-80
2024/01/25 04:39:23;;;;;;;;;2.25;2.25;;;;;;;;5088787;28;9086;-80
2024/01/25 04:41:52;;;;;;;;;2.00;2.00;;;;;;;;5088812;28;8842;-80
2024/01/25 04:44:19;;;;;;;;;2.00;2.00;;;;;;;;5087231;28;8929;-79
2024/01/25 04:46:46;;;;;;;;;4.75;3.50;;;;;;;;5077378;28;9016;-80
2024/01/25 04:49:13;;;;;;;;;5.00;4.00;;;;;;;;5074931;28;8878;-80
2024/01/25 04:51:41;;;;;;;;;3.00;2.75;;;;;;;;5086785;28;9662;-79
2024/01/25 04:54:12;;;;;;;;;2.25;2.25;;;;;;;;5086843;28;8854;-80
2024/01/25 04:56:39;;;;;;;;;3.00;3.00;;;;;;;;5087941;28;8897;-83
2024/01/25 04:59:08;;;;;;;;;1.50;1.25;;;;;;;;5092842;28;8951;-80
2024/01/25 05:01:36;;;;;;;;;1.75;1.75;;;;;;;;5089705;28;8790;-81
2024/01/25 05:04:03;;;;;;;;;2.50;1.00;;;;;;;;5088377;28;9003;-80
2024/01/25 05:06:31;;;;;;;;;1.75;1.75;;;;;;;;5088427;28;8858;-81
2024/01/25 05:08:58;;;;;;;;;3.00;3.00;;;;;;;;5088104;28;8905;-81
2024/01/25 05:11:25;;;;;;;;;8.25;5.00;;;;;;;;5088178;28;8870;-81
2024/01/25 05:13:52;;;;;;;;;9.00;6.00;;;;;;;;5087545;28;8972;-81
2024/01/25 05:16:21;;;;;;;;;3.25;2.00;;;;;;;;5088501;28;9026;-81
2024/01/25 05:18:48;;;;;;;;;2.00;2.00;;;;;;;;5088001;28;8927;-82
2024/01/25 05:21:15;;;;;;;;;1.75;1.25;;;;;;;;5088144;28;8862;-81
2024/01/25 05:23:43;;;;;;;;;1.75;1.75;;;;;;;;5086890;28;8838;-81
2024/01/25 05:26:10;;;;;;;;;3.00;3.00;;;;;;;;5088071;28;8854;-81
2024/01/25 05:28:37;;;;;;;;;2.75;2.00;;;;;;;;5086068;28;8974;-81
2024/01/25 05:31:04;;;;;;;;;2.00;2.00;;;;;;;;5087782;28;8787;-81
2024/01/25 05:33:33;;;;;;;;;0.00;0.00;;;;;;;;5087664;28;9641;-81
2024/01/25 05:36:00;;;;;;;;;5.75;3.50;;;;;;;;5088247;28;8926;-81
2024/01/25 05:38:27;;;;;;;;;2.33;2.33;;;;;;;;5088386;28;8880;-81
2024/01/25 05:40:55;;;;;;;;;8.33;3.33;;;;;;;;5088139;28;8959;-81
2024/01/25 05:43:22;;;;;;;;;3.75;3.25;;;;;;;;5090289;28;8916;-81
2024/01/25 05:45:49;;;;;;;;;6.00;4.33;;;;;;;;5078335;28;8889;-79
2024/01/25 05:48:18;;;;;;;;;5.00;3.00;;;;;;;;5092698;28;9095;-82
2024/01/25 05:50:47;;;;;;;;;4.00;4.00;;;;;;;;5091324;28;8869;-82
2024/01/25 05:53:16;;;;;;;;;4.00;2.00;;;;;;;;5094117;28;8966;-81
2024/01/25 05:55:46;;;;;;;;;4.00;3.00;;;;;;;;5088460;28;8980;-76
2024/01/25 05:58:13;;;;;;;;;3.00;3.00;;;;;;;;5081134;28;9076;-77
2024/01/25 06:00:40;;;;;;;;;5.00;5.00;;;;;;;;5089634;28;8973;-73
2024/01/25 06:03:07;;;;;;;;;5.67;3.67;;;;;;;;5088196;28;8939;-76
2024/01/25 06:05:34;;;;;;;;;3.00;2.25;;;;;;;;5090483;28;8927;-74
2024/01/25 06:08:03;;;;;;;;;3.67;3.00;;;;;;;;5090084;28;8869;-73
2024/01/25 06:10:30;;;;;;;;;4.00;2.50;;;;;;;;5092472;28;8927;-74
2024/01/25 06:12:58;;;;;;;;;1.67;1.00;;;;;;;;5092611;28;8988;-74
2024/01/25 06:15:30;;;;;;;;;3.50;3.00;;;;;;;;5088530;28;8903;-77
2024/01/25 06:17:57;;;;;;;;;3.25;3.25;;;;;;;;5091536;28;8880;-73
2024/01/25 06:20:30;;;;;;;;;4.33;1.33;;;;;;;;5090685;28;8842;-75
2024/01/25 06:22:57;;;;;;;;;2.00;2.00;;;;;;;;5091458;28;8854;-72
2024/01/25 06:25:27;;;;;;;;;4.25;3.00;;;;;;;;5087778;28;8842;-73
2024/01/25 06:27:56;;;;;;;;;2.25;1.75;;;;;;;;5090798;28;8868;-72
2024/01/25 06:30:23;;;;;;;;;3.00;3.00;;;;;;;;5085741;28;9483;-73
2024/01/25 06:32:50;;;;;;;;;3.00;3.00;;;;;;;;5087174;28;8834;-74
2024/01/25 06:35:17;;;;;;;;;5.67;2.00;;;;;;;;5090358;28;8926;-74
2024/01/25 06:37:45;;;;;;;;;4.33;4.00;;;;;;;;5089915;28;9025;-74
2024/01/25 06:40:21;;;;;;;;;1.75;1.25;;;;;;;;5091106;28;9109;-73
2024/01/25 06:42:56;;;;;;;;;1.00;1.00;;;;;;;;5091337;28;8904;-76
2024/01/25 06:45:32;;;;;;;;;1.50;1.00;;;;;;;;5092114;28;8919;-73
2024/01/25 06:47:59;;;;;;;;;2.00;1.00;;;;;;;;5088890;28;8858;-75
2024/01/25 06:50:26;;;;;;;;;2.33;2.00;;;;;;;;5090584;28;9190;-72
2024/01/25 06:52:57;;;;;;;;;1.33;1.33;;;;;;;;5088922;28;9030;-75
2024/01/25 06:55:30;;;;;;;;;3.33;3.00;;;;;;;;5089352;28;9756;-73
2024/01/25 06:57:58;;;;;;;;;1.00;1.00;;;;;;;;5089782;28;9201;-74
2024/01/25 07:00:26;;;;;;;;;1.67;1.33;;;;;;;;5089747;28;9038;-73
2024/01/25 07:02:53;;;;;;;;;6.00;2.67;;;;;;;;5090873;28;9084;-73
2024/01/25 07:05:20;;;;;;;;;2.67;2.67;;;;;;;;5089935;28;9107;-74
2024/01/25 07:07:47;;;;;;;;;2.00;2.00;;;;;;;;5088491;28;9028;-72
2024/01/25 07:10:15;;;;;;;;;2.00;2.00;;;;;;;;5087804;28;9012;-73
2024/01/25 07:12:42;;;;;;;;;3.00;1.67;;;;;;;;5090586;28;9020;-75
2024/01/25 07:15:11;;;;;;;;;6.33;3.33;;;;;;;;5089127;28;9025;-75
2024/01/25 07:17:39;;;;;;;;;4.67;1.67;;;;;;;;5089499;28;9755;-73
2024/01/25 07:20:07;;;;;;;;;2.00;2.00;;;;;;;;5089576;28;9157;-74
2024/01/25 07:22:35;;;;;;;;;4.67;2.00;;;;;;;;5087329;28;9019;-74
2024/01/25 07:25:02;;;;;;;;;2.67;2.67;;;;;;;;5087914;28;9057;-78
2024/01/25 07:27:35;;;;;;;;;4.00;2.00;;;;;;;;5089750;28;9215;-75
2024/01/25 07:30:02;;;;;;;;;4.33;2.67;;;;;;;;5089909;28;9016;-75
2024/01/25 07:32:35;;;;;;;;;4.00;4.00;;;;;;;;5091152;28;9391;-79
2024/01/25 07:35:14;;;;;;;;;4.00;2.00;;;;;;;;5092052;28;9342;-77
2024/01/25 07:37:50;;;;;;;;;6.67;3.67;;;;;;;;5089298;28;10155;-76
2024/01/25 07:40:20;;;;;;;;;5.00;3.00;;;;;;;;5083322;28;9298;-76
2024/01/25 07:42:48;;;;;;;;;4.00;2.33;;;;;;;;5090908;28;9339;-77
2024/01/25 07:45:15;;;;;;;;;5.00;3.33;;;;;;;;5092780;28;9489;-77
2024/01/25 07:47:44;;;;;;;;;4.00;4.00;;;;;;;;5090517;28;9239;-77
2024/01/25 07:50:11;;;;;;;;;3.33;2.00;;;;;;;;5092364;28;9123;-77
2024/01/25 07:52:39;;;;;;;;;3.33;2.00;;;;;;;;5089097;28;8985;-74
2024/01/25 07:55:09;;;;;;;;;4.00;1.00;;;;;;;;5089597;28;9077;-74
2024/01/25 07:57:36;;;;;;;;;2.67;2.67;;;;;;;;5089607;28;9911;-74
2024/01/25 08:00:05;;;;;;;;;2.67;1.00;;;;;;;;5090713;28;9192;-75
2024/01/25 08:02:32;;;;;;;;;2.00;2.00;;;;;;;;5087808;28;8963;-75
2024/01/25 08:05:01;;;;;;;;;5.00;3.33;;;;;;;;5086744;28;9189;-75
2024/01/25 08:07:29;;;;;;;;;2.00;2.00;;;;;;;;5085903;28;9270;-73
2024/01/25 08:09:58;;;;;;;;;3.67;2.67;;;;;;;;5088833;28;9217;-76
2024/01/25 08:12:25;;;;;;;;;7.00;4.33;;;;;;;;5088355;28;9074;-75
2024/01/25 08:14:52;;;;;;;;;4.67;2.67;;;;;;;;5086745;28;9207;-74
2024/01/25 08:17:20;;;;;;;;;8.00;3.00;;;;;;;;5088168;28;9075;-74
2024/01/25 08:19:47;;;;;;;;;3.00;3.00;;;;;;;;5084590;28;9256;-75
2024/01/25 08:22:15;;;;;;;;;7.00;4.00;;;;;;;;5085510;28;9228;-75
2024/01/25 08:24:43;;;;;;;;;5.00;3.00;;;;;;;;5087585;28;9334;-74
2024/01/25 08:27:10;;;;;;;;;4.67;3.67;;;;;;;;5088282;28;9280;-75
2024/01/25 08:29:38;;;;;;;;;3.00;2.00;;;;;;;;5083156;28;9200;-73
2024/01/25 08:32:05;;;;;;;;;4.67;4.00;;;;;;;;5087995;28;9054;-74
2024/01/25 08:34:32;;;;;;;;;2.67;2.67;;;;;;;;5088001;28;9163;-74
2024/01/25 08:37:00;;;;;;;;;6.33;4.00;;;;;;;;5088415;28;9273;-73
2024/01/25 08:39:31;;;;;;;;;5.33;4.00;;;;;;;;5088340;28;9299;-76
2024/01/25 08:42:01;;;;;;;;;5.67;4.00;;;;;;;;5088072;28;9176;-75
2024/01/25 08:44:28;;;;;;;;;5.00;3.67;;;;;;;;5085948;28;9159;-77
2024/01/25 08:46:56;;;;;;;;;3.00;3.00;;;;;;;;5078930;28;9167;-76
2024/01/25 08:49:23;;;;;;;;;5.33;4.67;;;;;;;;5088063;28;9404;-75
2024/01/25 08:51:50;;;;;;;;;6.00;5.67;;;;;;;;5088386;28;9332;-75
2024/01/25 08:54:17;;;;;;;;;9.00;7.50;;;;;;;;5088020;28;9304;-78
2024/01/25 08:56:46;;;;;;;;;8.67;6.67;;;;;;;;5088099;28;9398;-74
2024/01/25 08:59:13;;;;;;;;;17.00;9.00;;;;;;;;5088078;28;9393;-76
2024/01/25 09:01:40;;;;;;;;;15.75;11.00;;;;;;;;5086341;28;9275;-76
2024/01/25 09:04:08;;;;;;;;;10.00;10.00;;;;;;;;5089076;28;9453;-74
2024/01/25 09:06:37;;;;;;;;;14.00;8.00;;;;;;;;5090391;28;9525;-76
2024/01/25 09:09:05;;;;;;;;;12.75;10.75;;;;;;;;5089326;28;9601;-75
2024/01/25 09:11:32;;;;;;;;;14.33;8.00;;;;;;;;5086736;28;9575;-76
2024/01/25 09:14:01;;;;;;;;;14.67;13.33;;;;;;;;5087783;28;10242;-77
2024/01/25 09:16:31;;;;;;;;;15.33;10.00;;;;;;;;5087132;28;9666;-73
2024/01/25 09:18:58;;;;;;;;;11.75;10.00;;;;;;;;5087371;28;9351;-75
2024/01/25 09:21:26;;;;;;;;;9.67;9.67;;;;;;;;5088782;28;9571;-78
2024/01/25 09:23:53;;;;;;;;;14.25;8.50;;;;;;;;5089840;28;9430;-77
2024/01/25 09:26:21;;;;;;;;;7.33;7.33;;;;;;;;5088852;28;9470;-77
2024/01/25 09:28:48;;;;;;;;;7.00;5.75;;;;;;;;5087878;28;9896;-75
2024/01/25 09:31:16;;;;;;;;;8.00;8.00;;;;;;;;5087589;28;9387;-78
2024/01/25 09:33:43;;;;;;;;;11.33;8.67;;;;;;;;5079504;28;9458;-76
2024/01/25 09:36:11;;;;;;;;;9.75;8.50;;;;;;;;5089724;28;9353;-76
2024/01/25 09:38:38;;;;;;;;;12.50;12.50;;;;;;;;5090096;28;9624;-75
2024/01/25 09:41:07;;;;;;;;;13.33;10.67;;;;;;;;5093236;28;9491;-75
2024/01/25 09:43:34;;;;;;;;;11.50;10.50;;;;;;;;5091670;28;9315;-75
2024/01/25 09:46:02;;;;;;;;;13.50;11.50;;;;;;;;5091165;28;9377;-75
2024/01/25 09:48:31;;;;;;;;;15.50;9.75;;;;;;;;5092718;28;9553;-77
2024/01/25 09:51:00;;;;;;;;;13.75;12.25;;;;;;;;5093251;28;9615;-75
2024/01/25 09:53:32;;;;;;;;;11.50;11.50;;;;;;;;5092866;28;9696;-74
2024/01/25 09:56:05;;;;;;;;;14.00;13.50;;;;;;;;5091102;28;9626;-75
2024/01/25 09:58:38;;;;;;;;;15.00;15.00;;;;;;;;5091487;28;9804;-74
2024/01/25 10:01:08;;;;;;;;;17.00;13.50;;;;;;;;5090920;28;9567;-77
2024/01/25 10:03:39;;;;;;;;;14.50;14.00;;;;;;;;5090805;28;9555;-76
2024/01/25 10:06:07;;;;;;;;;14.50;13.75;;;;;;;;5091469;28;9464;-76
2024/01/25 10:08:34;;;;;;;;;16.00;13.33;;;;;;;;5090156;28;9406;-75
2024/01/25 10:11:01;;;;;;;;;16.33;13.33;;;;;;;;5079269;28;9432;-77
2024/01/25 10:13:29;;;;;;;;;19.00;14.00;;;;;;;;5091804;28;9407;-76
2024/01/25 10:16:00;;;;;;;;;16.00;16.00;;;;;;;;5093652;28;9250;-76
2024/01/25 10:18:30;;;;;;;;;17.67;15.33;;;;;;;;5092518;28;9380;-77
2024/01/25 10:21:00;;;;;;;;;18.33;13.67;;;;;;;;5093588;28;10147;-79
2024/01/25 10:23:30;;;;;;;;;18.33;13.33;;;;;;;;5093378;28;9249;-76
2024/01/25 10:25:57;;;;;;;;;15.00;13.33;;;;;;;;5093149;28;9268;-76
2024/01/25 10:28:25;;;;;;;;;20.00;18.00;;;;;;;;5091731;28;9157;-78
2024/01/25 10:30:52;;;;;;;;;21.67;17.00;;;;;;;;5083473;28;9101;-76
2024/01/25 10:33:20;;;;;;;;;16.33;16.33;;;;;;;;5092332;28;9161;-75
2024/01/25 10:35:49;;;;;;;;;19.67;18.00;;;;;;;;5090688;28;9078;-76
2024/01/25 10:38:18;;;;;;;;;22.00;17.00;;;;;;;;5090489;28;9165;-74
2024/01/25 10:40:48;;;;;;;;;18.00;17.00;;;;;;;;5088572;28;9252;-76
2024/01/25 10:43:15;;;;;;;;;15.00;14.00;;;;;;;;5087505;28;8984;-75
2024/01/25 10:45:43;;;;;;;;;19.00;15.00;;;;;;;;5088856;28;9052;-74
2024/01/25 10:48:10;;;;;;;;;17.00;12.00;;;;;;;;5088465;28;8878;-76
2024/01/25 10:50:39;;;;;;;;;17.25;15.75;;;;;;;;5089933;28;8854;-75
2024/01/25 10:53:07;;;;;;;;;15.50;11.00;;;;;;;;5088397;28;8989;-76
2024/01/25 10:55:36;;;;;;;;;14.50;12.50;;;;;;;;5089629;28;8858;-78
2024/01/25 10:58:04;;;;;;;;;12.00;11.50;;;;;;;;5090304;28;8873;-75
2024/01/25 11:00:34;;;;;;;;;12.75;11.25;;;;;;;;5095443;28;8824;-77
2024/01/25 11:03:02;;;;;;;;;13.00;11.50;;;;;;;;5092922;28;8976;-76
2024/01/25 11:05:30;;;;;;;;;10.00;10.00;;;;;;;;5090033;28;8854;-77
2024/01/25 11:07:58;;;;;;;;;9.75;9.75;;;;;;;;5090881;28;8838;-76
2024/01/25 11:10:27;;;;;;;;;12.50;12.50;;;;;;;;5091952;28;8850;-77
2024/01/25 11:12:58;;;;;;;;;14.00;12.00;;;;;;;;5094168;28;8972;-75
2024/01/25 11:15:32;;;;;;;;;14.00;12.25;;;;;;;;5094062;28;8864;-77
2024/01/25 11:18:00;;;;;;;;;18.75;16.00;;;;;;;;5086257;28;8850;-79
2024/01/25 11:20:29;;;;;;;;;10.00;10.00;;;;;;;;5094137;28;8981;-76
2024/01/25 11:22:59;;;;;;;;;15.25;13.00;;;;;;;;5090436;28;8868;-78
2024/01/25 11:25:29;;;;;;;;;19.25;13.25;;;;;;;;5097039;28;8874;-77
2024/01/25 11:28:00;;;;;;;;;11.00;11.00;;;;;;;;5087826;28;9060;-77
2024/01/25 11:30:33;;;;;;;;;9.25;8.75;;;;;;;;5086015;28;8878;-76
2024/01/25 11:33:00;;;;;;;;;12.00;12.00;;;;;;;;5087995;28;8871;-75
2024/01/25 11:35:28;;;;;;;;;10.25;10.00;;;;;;;;5080518;28;8828;-76
2024/01/25 11:37:55;;;;;;;;;12.25;10.00;;;;;;;;5074622;28;8880;-77
2024/01/25 11:40:23;;;;;;;;;13.50;13.50;;;;;;;;5090476;28;8842;-74
2024/01/25 11:42:51;;;;;;;;;18.75;14.50;;;;;;;;5089784;28;8954;-78
2024/01/25 11:45:19;;;;;;;;;13.00;13.00;;;;;;;;5081378;28;9030;-75
2024/01/25 11:47:47;;;;;;;;;9.50;9.50;;;;;;;;5084457;28;8857;-76
2024/01/25 11:50:14;;;;;;;;;14.25;12.00;;;;;;;;5089364;28;8834;-77
2024/01/25 11:52:41;;;;;;;;;10.25;10.25;;;;;;;;5088497;28;8870;-76
2024/01/25 11:55:10;;;;;;;;;8.50;6.75;;;;;;;;5086550;28;8850;-78
2024/01/25 11:57:40;;;;;;;;;10.25;9.25;;;;;;;;5088572;28;8861;-78
2024/01/25 12:00:10;;;;;;;;;9.75;7.25;;;;;;;;5089172;28;8870;-76
2024/01/25 12:02:39;;;;;;;;;8.25;7.00;;;;;;;;5089356;28;8852;-76
2024/01/25 12:05:07;;;;;;;;;9.50;8.00;;;;;;;;5090587;28;8858;-73
2024/01/25 12:07:35;;;;;;;;;9.75;8.25;;;;;;;;5089613;28;8874;-78
2024/01/25 12:10:04;;;;;;;;;11.50;9.00;;;;;;;;5089490;28;8935;-76
2024/01/25 12:12:31;;;;;;;;;7.50;7.50;;;;;;;;5085793;28;8977;-77
2024/01/25 12:15:03;;;;;;;;;9.50;8.50;;;;;;;;5088688;28;8838;-75
2024/01/25 12:17:30;;;;;;;;;8.50;8.00;;;;;;;;5086718;28;8843;-74
2024/01/25 12:20:00;;;;;;;;;7.00;7.00;;;;;;;;5087824;28;8941;-76
2024/01/25 12:22:29;;;;;;;;;8.00;8.00;;;;;;;;5087896;28;9005;-75
2024/01/25 12:24:59;;;;;;;;;8.75;8.75;;;;;;;;5088622;28;8854;-74
2024/01/25 12:27:32;;;;;;;;;12.00;9.25;;;;;;;;5078787;28;8925;-76
2024/01/25 12:30:03;;;;;;;;;13.25;10.25;;;;;;;;5085585;28;8860;-75
2024/01/25 12:32:33;;;;;;;;;7.00;7.00;;;;;;;;5085587;28;8806;-76
2024/01/25 12:35:03;;;;;;;;;8.50;7.00;;;;;;;;5088665;28;8838;-75
2024/01/25 12:37:30;;;;;;;;;12.50;10.00;;;;;;;;5088293;28;8869;-75
2024/01/25 12:40:00;;;;;;;;;9.00;9.00;;;;;;;;5083883;28;8871;-75
2024/01/25 12:42:28;;;;;;;;;9.00;8.25;;;;;;;;5089005;28;8862;-77
2024/01/25 12:44:58;;;;;;;;;8.75;8.75;;;;;;;;5083137;28;8870;-77
2024/01/25 12:47:25;;;;;;;;;10.00;8.50;;;;;;;;5082485;28;8851;-78
2024/01/25 12:49:52;;;;;;;;;10.00;9.00;;;;;;;;5080674;28;8850;-78
2024/01/25 12:52:21;;;;;;;;;8.00;8.00;;;;;;;;5087958;28;8862;-78
2024/01/25 12:54:48;;;;;;;;;9.00;7.75;;;;;;;;5083214;28;8866;-76
2024/01/25 12:57:16;;;;;;;;;7.50;7.00;;;;;;;;5079975;28;8862;-76
2024/01/25 12:59:44;;;;;;;;;10.00;8.50;;;;;;;;5083598;28;8842;-77
2024/01/25 13:02:14;;;;;;;;;5.00;5.00;;;;;;;;5088238;28;8794;-77
2024/01/25 13:04:44;;;;;;;;;5.50;5.50;;;;;;;;5088837;28;8945;-77
2024/01/25 13:07:11;;;;;;;;;7.00;6.75;;;;;;;;5089063;28;8870;-76
2024/01/25 13:09:39;;;;;;;;;8.75;5.00;;;;;;;;5081588;28;8842;-75
2024/01/25 13:12:07;;;;;;;;;5.00;5.00;;;;;;;;5089996;28;8850;-77
2024/01/25 13:14:34;;;;;;;;;6.75;5.00;;;;;;;;5086718;28;8862;-77
2024/01/25 13:17:02;;;;;;;;;5.50;5.00;;;;;;;;5089792;28;8846;-76
2024/01/25 13:19:29;;;;;;;;;6.00;6.00;;;;;;;;5089554;28;8818;-78
2024/01/25 13:21:56;;;;;;;;;5.25;5.25;;;;;;;;5089060;28;8842;-74
2024/01/25 13:24:23;;;;;;;;;5.50;5.00;;;;;;;;5070942;28;8967;-76
2024/01/25 13:26:52;;;;;;;;;5.00;5.00;;;;;;;;5085216;28;8876;-77
2024/01/25 13:29:19;;;;;;;;;5.75;5.75;;;;;;;;5069285;28;8836;-78
2024/01/25 13:31:47;;;;;;;;;5.50;4.00;;;;;;;;5076300;28;8812;-76
2024/01/25 13:34:14;;;;;;;;;5.00;5.00;;;;;;;;5079940;28;8842;-76
2024/01/25 13:36:42;;;;;;;;;5.75;5.75;;;;;;;;5087003;28;8843;-77
2024/01/25 13:39:10;;;;;;;;;6.75;4.50;;;;;;;;5087859;28;9635;-76
2024/01/25 13:41:37;;;;;;;;;5.00;5.00;;;;;;;;5086277;28;8849;-76
2024/01/25 13:44:05;;;;;;;;;5.25;5.25;;;;;;;;5080389;28;8965;-75
2024/01/25 13:46:33;;;;;;;;;7.00;5.50;;;;;;;;5073256;28;8859;-75
2024/01/25 13:49:00;;;;;;;;;6.75;5.50;;;;;;;;5086242;28;8858;-76
2024/01/25 13:51:27;;;;;;;;;6.75;5.75;;;;;;;;5087915;28;8830;-75
2024/01/25 13:53:57;;;;;;;;;4.75;3.75;;;;;;;;5090043;28;8903;-76
2024/01/25 13:56:24;;;;;;;;;6.25;5.75;;;;;;;;5089486;28;8915;-76
2024/01/25 13:58:51;;;;;;;;;5.25;5.00;;;;;;;;5087173;28;9678;-76
2024/01/25 14:01:21;;;;;;;;;4.75;4.75;;;;;;;;5083869;28;8814;-76
2024/01/25 14:03:48;;;;;;;;;7.50;6.00;;;;;;;;5087153;28;8866;-77
2024/01/25 14:06:15;;;;;;;;;5.50;4.25;;;;;;;;5086818;28;8858;-77
2024/01/25 14:08:43;;;;;;;;;5.25;3.25;;;;;;;;5086979;28;8980;-76
2024/01/25 14:11:10;;;;;;;;;3.50;3.50;;;;;;;;5083731;28;8842;-77
2024/01/25 14:13:38;;;;;;;;;4.00;4.00;;;;;;;;5081567;28;8866;-76
2024/01/25 14:16:05;;;;;;;;;7.00;4.25;;;;;;;;5086975;28;8857;-77
2024/01/25 14:18:39;;;;;;;;;4.00;3.00;;;;;;;;5086596;28;8982;-76
2024/01/25 14:21:07;;;;;;;;;5.00;5.00;;;;;;;;5080234;28;8858;-76
2024/01/25 14:23:34;;;;;;;;;3.25;3.25;;;;;;;;5086139;28;9716;-75
2024/01/25 14:26:01;;;;;;;;;4.00;4.00;;;;;;;;5084030;28;8878;-76
2024/01/25 14:28:31;;;;;;;;;3.25;3.00;;;;;;;;5089312;28;8840;-76
2024/01/25 14:30:58;;;;;;;;;2.50;2.25;;;;;;;;5090999;28;8767;-75
2024/01/25 14:33:25;;;;;;;;;4.50;3.00;;;;;;;;5086093;28;8979;-77
2024/01/25 14:35:54;;;;;;;;;2.75;1.50;;;;;;;;5090644;28;8872;-76
2024/01/25 14:38:21;;;;;;;;;1.25;1.25;;;;;;;;5086582;28;9000;-76
2024/01/25 14:40:48;;;;;;;;;4.25;2.00;;;;;;;;5090215;28;8879;-75
2024/01/25 14:43:16;;;;;;;;;3.00;3.00;;;;;;;;5084567;28;8879;-78
2024/01/25 14:45:43;;;;;;;;;2.00;2.00;;;;;;;;5075462;28;8844;-76
2024/01/25 14:48:11;;;;;;;;;3.00;3.00;;;;;;;;5090809;28;8880;-77
2024/01/25 14:50:38;;;;;;;;;2.00;2.00;;;;;;;;5089597;28;8961;-76
2024/01/25 14:53:07;;;;;;;;;3.75;2.00;;;;;;;;5091268;28;8877;-77
2024/01/25 14:55:34;;;;;;;;;2.00;2.00;;;;;;;;5089650;28;8850;-77